Time;durP1;ratioP1;P1;durP2;ratioP2;P2;SDS_P1;SDS_P2;PMS_P1;PMS_P2;Temp;Humidity;BMP_temperature;BMP_pressure;BME280_temperature;BME280_humidity;BME280_pressure;Samples;Min_cycle;Max_cycle;Signal;HPM_P1;HPM_P2
2023/09/04 00:00:29;;;;;;;8.50;7.70;;;;;;;14.20;100.00;102640.19;5028520;28;20418;-89
2023/09/04 00:02:54;;;;;;;8.50;7.70;;;;;;;14.16;100.00;102644.81;5012063;28;20034;-89
2023/09/04 00:05:19;;;;;;;8.80;7.90;;;;;;;14.16;100.00;102644.81;5025818;28;20033;-89
2023/09/04 00:07:45;;;;;;;11.45;9.38;;;;;;;14.11;100.00;102641.59;5010112;28;20030;-89
2023/09/04 00:10:11;;;;;;;9.05;8.25;;;;;;;14.07;100.00;102640.94;5025382;28;20021;-89
2023/09/04 00:12:36;;;;;;;8.55;7.75;;;;;;;14.02;100.00;102640.34;5033107;28;20021;-89
2023/09/04 00:15:02;;;;;;;9.63;8.02;;;;;;;14.07;100.00;102640.06;5029130;28;20061;-89
2023/09/04 00:17:27;;;;;;;8.50;7.70;;;;;;;14.03;100.00;102635.91;5029887;28;20052;-89
2023/09/04 00:19:53;;;;;;;10.15;8.10;;;;;;;13.99;100.00;102637.88;5028935;28;20098;-89
2023/09/04 00:22:19;;;;;;;8.73;7.93;;;;;;;13.92;100.00;102631.25;5030392;28;20512;-89
2023/09/04 00:24:44;;;;;;;8.75;8.05;;;;;;;13.95;100.00;102638.13;5029781;28;20410;-89
2023/09/04 00:27:10;;;;;;;9.30;8.40;;;;;;;13.88;100.00;102632.38;5030003;28;20103;-89
2023/09/04 00:29:35;;;;;;;9.13;8.30;;;;;;;13.91;100.00;102633.97;5025216;28;20033;-89
2023/09/04 00:32:02;;;;;;;9.35;8.55;;;;;;;13.77;100.00;102630.38;5009752;28;20942;-88
2023/09/04 00:34:28;;;;;;;9.00;8.18;;;;;;;13.83;100.00;102625.66;5010281;28;20270;-89
2023/09/04 00:36:53;;;;;;;11.63;8.52;;;;;;;13.71;100.00;102629.88;5010159;28;20041;-89
2023/09/04 00:39:18;;;;;;;9.60;8.60;;;;;;;13.72;100.00;102619.19;5009751;28;20041;-90
2023/09/04 00:41:45;;;;;;;9.48;8.48;;;;;;;13.69;100.00;102621.19;5025399;28;20053;-89
2023/09/04 00:44:10;;;;;;;9.75;8.73;;;;;;;13.66;100.00;102632.78;5025718;28;20029;-89
2023/09/04 00:46:35;;;;;;;9.70;8.80;;;;;;;13.67;100.00;102631.84;5030121;28;20042;-90
2023/09/04 00:49:01;;;;;;;9.05;8.25;;;;;;;13.60;100.00;102634.91;5029461;28;20149;-89
2023/09/04 00:51:27;;;;;;;9.05;8.25;;;;;;;13.58;100.00;102648.22;5029464;28;20036;-89
2023/09/04 00:53:53;;;;;;;9.93;8.43;;;;;;;13.54;100.00;102638.78;5032775;28;20056;-89
2023/09/04 00:56:18;;;;;;;9.45;8.57;;;;;;;13.49;100.00;102639.03;5050576;28;20499;-89
2023/09/04 00:58:44;;;;;;;9.65;8.75;;;;;;;13.44;100.00;102641.09;5049287;28;20017;-89
2023/09/04 01:01:09;;;;;;;9.80;8.80;;;;;;;13.41;100.00;102636.00;5037100;28;20024;-89
2023/09/04 01:03:35;;;;;;;9.98;9.15;;;;;;;13.37;100.00;102639.75;5011402;28;20026;-90
2023/09/04 01:06:01;;;;;;;10.40;9.30;;;;;;;13.37;100.00;102633.63;5010762;28;20362;-90
2023/09/04 01:08:27;;;;;;;9.98;9.07;;;;;;;13.31;100.00;102629.53;5010127;28;20068;-90
2023/09/04 01:11:20;;;;;;;10.18;9.18;;;;;;;13.36;100.00;102635.41;5026059;28;20057;-90
2023/09/04 01:13:56;;;;;;;9.65;8.75;;;;;;;13.31;100.00;102631.31;5025303;28;20096;-90
2023/09/04 01:16:23;;;;;;;10.07;9.02;;;;;;;13.20;100.00;102628.41;5009494;28;20041;-89
2023/09/04 01:18:50;;;;;;;9.65;8.77;;;;;;;13.21;100.00;102624.81;5012595;28;20013;-89
2023/09/04 01:21:16;;;;;;;11.95;10.60;;;;;;;13.16;100.00;102625.06;5008731;28;20114;-90
2023/09/04 01:23:44;;;;;;;11.45;10.23;;;;;;;13.13;100.00;102622.59;5009630;28;20104;-89
2023/09/04 01:26:33;;;;;;;11.60;10.63;;;;;;;13.11;100.00;102622.69;5007938;28;20064;-89
2023/09/04 01:29:16;;;;;;;12.00;10.80;;;;;;;13.10;100.00;102620.97;5037019;28;20033;-90
2023/09/04 01:31:50;;;;;;;11.80;10.70;;;;;;;13.09;100.00;102624.56;5049441;28;20028;-89
2023/09/04 01:34:24;;;;;;;10.52;9.52;;;;;;;13.02;100.00;102628.47;5046031;28;20021;-89
2023/09/04 01:36:52;;;;;;;10.60;9.70;;;;;;;13.03;100.00;102622.25;5011041;28;20116;-90
2023/09/04 01:39:19;;;;;;;10.90;9.95;;;;;;;12.98;100.00;102623.47;5009091;28;20022;-90
2023/09/04 01:41:45;;;;;;;11.20;10.05;;;;;;;12.95;100.00;102632.41;5008719;28;20033;-89
2023/09/04 01:44:10;;;;;;;10.25;9.35;;;;;;;12.98;100.00;102624.31;5009121;28;20072;-89
2023/09/04 01:46:35;;;;;;;11.75;10.55;;;;;;;12.92;100.00;102627.31;5024758;28;20494;-89
2023/09/04 01:49:01;;;;;;;10.65;9.55;;;;;;;12.89;100.00;102632.75;5024039;28;20530;-89
2023/09/04 01:51:26;;;;;;;11.13;10.07;;;;;;;12.88;100.00;102622.28;5011388;28;20128;-89
2023/09/04 01:53:51;;;;;;;11.30;10.20;;;;;;;12.86;100.00;102617.06;5031676;28;20478;-89
2023/09/04 01:56:17;;;;;;;11.40;10.35;;;;;;;12.83;100.00;102625.16;5049374;28;20108;-89
2023/09/04 01:58:42;;;;;;;11.30;10.20;;;;;;;12.80;100.00;102617.38;5048624;28;20385;-89
2023/09/04 02:01:10;;;;;;;10.98;9.98;;;;;;;12.78;100.00;102619.25;5049915;28;20033;-89
2023/09/04 02:03:36;;;;;;;10.38;9.45;;;;;;;12.75;100.00;102615.00;5049737;28;20025;-89
2023/09/04 02:06:01;;;;;;;11.52;10.32;;;;;;;12.73;100.00;102621.31;5049815;28;20051;-89
2023/09/04 02:08:27;;;;;;;10.88;9.98;;;;;;;12.72;100.00;102620.44;5049452;28;20195;-89
2023/09/04 02:10:53;;;;;;;11.27;10.23;;;;;;;12.67;100.00;102616.34;5031852;28;20044;-89
2023/09/04 02:13:19;;;;;;;11.68;10.48;;;;;;;12.64;100.00;102612.09;5044920;28;20097;-89
2023/09/04 02:15:44;;;;;;;12.65;11.45;;;;;;;12.64;100.00;102606.81;5029713;28;20034;-89
2023/09/04 02:18:10;;;;;;;13.15;11.98;;;;;;;12.62;100.00;102606.06;5029002;28;20032;-89
2023/09/04 02:20:35;;;;;;;11.98;10.93;;;;;;;12.60;100.00;102605.28;5029620;28;20021;-89
2023/09/04 02:23:01;;;;;;;11.70;10.70;;;;;;;12.58;100.00;102595.75;5027408;28;20166;-89
2023/09/04 02:25:26;;;;;;;12.38;11.23;;;;;;;12.62;100.00;102589.34;5028107;28;20370;-89
2023/09/04 02:27:52;;;;;;;14.43;12.25;;;;;;;12.60;100.00;102583.31;5041613;28;20477;-89
2023/09/04 02:30:18;;;;;;;13.70;12.50;;;;;;;12.58;100.00;102580.75;5029583;28;20034;-89
2023/09/04 02:32:43;;;;;;;14.63;13.20;;;;;;;12.55;100.00;102584.41;5031515;28;20022;-89
2023/09/04 02:35:09;;;;;;;15.35;13.95;;;;;;;12.58;100.00;102590.47;5032124;28;20036;-89
2023/09/04 02:37:35;;;;;;;15.43;14.10;;;;;;;12.54;100.00;102582.72;5047731;28;20025;-89
2023/09/04 02:40:00;;;;;;;16.33;14.48;;;;;;;12.53;100.00;102581.00;5046656;28;20087;-89
2023/09/04 02:42:29;;;;;;;15.98;14.40;;;;;;;12.55;100.00;102587.06;5031732;28;20048;-89
2023/09/04 02:44:54;;;;;;;17.05;15.45;;;;;;;12.59;100.00;102579.81;5020006;28;20049;-89
2023/09/04 02:47:19;;;;;;;17.58;15.70;;;;;;;12.60;100.00;102578.03;5012082;28;20029;-89
2023/09/04 02:49:45;;;;;;;17.65;15.95;;;;;;;12.62;100.00;102576.16;5027232;28;20033;-89
2023/09/04 02:52:11;;;;;;;17.25;15.57;;;;;;;12.62;100.00;102581.44;5011449;28;20029;-89
2023/09/04 02:54:36;;;;;;;17.17;15.57;;;;;;;12.61;100.00;102582.38;5044431;28;20031;-89
2023/09/04 02:57:02;;;;;;;18.80;16.55;;;;;;;12.62;100.00;102581.44;5051549;28;20072;-89
2023/09/04 02:59:28;;;;;;;18.58;16.80;;;;;;;12.60;100.00;102570.94;5050763;28;20025;-89
2023/09/04 03:01:53;;;;;;;19.25;17.25;;;;;;;12.61;100.00;102569.16;5016023;28;20037;-89
2023/09/04 03:04:18;;;;;;;19.42;17.17;;;;;;;12.59;100.00;102571.88;5012455;28;20029;-89
2023/09/04 03:06:44;;;;;;;18.60;17.00;;;;;;;12.61;100.00;102574.44;5027634;28;20116;-89
2023/09/04 03:09:09;;;;;;;19.33;17.45;;;;;;;12.58;100.00;102558.78;5012325;28;20030;-89
2023/09/04 03:11:34;;;;;;;19.33;17.52;;;;;;;12.58;100.00;102558.78;5028322;28;20466;-89
2023/09/04 03:14:00;;;;;;;19.45;17.63;;;;;;;12.55;100.00;102558.00;5027116;28;20033;-89
2023/09/04 03:16:27;;;;;;;19.83;17.75;;;;;;;12.55;100.00;102544.81;5028761;28;20104;-89
2023/09/04 03:18:53;;;;;;;19.15;17.48;;;;;;;12.55;100.00;102546.59;5027878;28;20049;-89
2023/09/04 03:21:18;;;;;;;19.33;17.63;;;;;;;12.57;100.00;102546.50;5011849;28;20034;-88
2023/09/04 03:23:47;;;;;;;19.25;17.40;;;;;;;12.55;100.00;102542.16;5033486;28;20017;-89
2023/09/04 03:26:13;;;;;;;18.70;16.85;;;;;;;12.53;100.00;102540.53;5030838;28;20389;-89
2023/09/04 03:28:38;;;;;;;22.15;18.65;;;;;;;12.52;100.00;102542.34;5036770;28;20017;-89
2023/09/04 03:31:04;;;;;;;21.38;18.05;;;;;;;12.53;100.00;102546.69;5050311;28;20376;-88
2023/09/04 03:33:29;;;;;;;20.48;18.33;;;;;;;12.51;100.00;102553.84;5032885;28;20038;-89
2023/09/04 03:35:57;;;;;;;18.45;16.70;;;;;;;12.51;100.00;102556.47;5030107;28;20032;-88
2023/09/04 03:38:23;;;;;;;20.25;18.05;;;;;;;12.52;100.00;102550.25;5030199;28;20521;-88
2023/09/04 03:40:49;;;;;;;19.67;17.80;;;;;;;12.53;100.00;102559.03;5028832;28;20505;-89
2023/09/04 03:43:14;;;;;;;19.10;17.20;;;;;;;12.50;100.00;102551.28;5046643;28;20029;-88
2023/09/04 03:45:39;;;;;;;19.77;17.98;;;;;;;12.49;100.00;102550.44;5048800;28;20049;-88
2023/09/04 03:48:05;;;;;;;20.17;18.08;;;;;;;12.49;100.00;102545.16;5048561;28;20060;-88
2023/09/04 03:50:30;;;;;;;19.52;17.52;;;;;;;12.48;100.00;102548.72;5031106;28;20029;-88
2023/09/04 03:52:56;;;;;;;19.30;17.50;;;;;;;12.48;100.00;102543.44;5028755;28;20049;-88
2023/09/04 03:55:22;;;;;;;19.05;17.08;;;;;;;12.49;100.00;102539.88;5043958;28;20031;-88
2023/09/04 03:57:51;;;;;;;18.77;17.08;;;;;;;12.48;100.00;102539.94;5048595;28;20103;-88
2023/09/04 04:00:19;;;;;;;20.15;18.08;;;;;;;12.47;100.00;102536.47;5049354;28;20032;-88
2023/09/04 04:02:49;;;;;;;18.52;16.83;;;;;;;12.52;100.00;102538.84;5049204;28;20029;-87
2023/09/04 04:05:15;;;;;;;19.30;17.50;;;;;;;12.53;100.00;102541.41;5048232;28;20021;-88
2023/09/04 04:07:44;;;;;;;19.55;17.52;;;;;;;12.53;100.00;102541.41;5037649;28;20025;-88
2023/09/04 04:10:10;;;;;;;19.27;17.40;;;;;;;12.59;100.00;102545.47;5040370;28;20036;-88
2023/09/04 04:12:35;;;;;;;17.85;16.23;;;;;;;12.58;100.00;102543.78;5049605;28;20517;-88
2023/09/04 04:15:04;;;;;;;17.33;15.75;;;;;;;12.50;100.00;102551.28;5050610;28;20292;-87
2023/09/04 04:17:30;;;;;;;18.13;16.17;;;;;;;12.50;100.00;102536.28;5050067;28;20064;-87
2023/09/04 04:19:56;;;;;;;18.92;16.88;;;;;;;12.46;100.00;102542.69;5050623;28;20048;-88
2023/09/04 04:22:22;;;;;;;18.90;16.90;;;;;;;12.45;100.00;102548.03;5050435;28;20092;-87
2023/09/04 04:24:48;;;;;;;18.77;16.95;;;;;;;12.40;100.00;102537.69;5032098;28;20030;-87
2023/09/04 04:27:15;;;;;;;18.95;17.20;;;;;;;12.43;100.00;102548.13;5030207;28;20025;-87
2023/09/04 04:29:44;;;;;;;19.38;17.38;;;;;;;12.40;100.00;102535.06;5045900;28;20028;-87
2023/09/04 04:32:09;;;;;;;18.98;16.88;;;;;;;12.36;100.00;102538.81;5049415;28;20074;-87
2023/09/04 04:34:34;;;;;;;16.50;15.00;;;;;;;12.35;100.00;102537.09;5050752;28;20477;-87
2023/09/04 04:37:00;;;;;;;16.38;14.77;;;;;;;12.31;100.00;102538.22;5049378;28;20029;-87
2023/09/04 04:39:26;;;;;;;16.75;15.05;;;;;;;12.36;100.00;102538.81;5048249;28;20040;-87
2023/09/04 04:41:51;;;;;;;16.13;14.55;;;;;;;12.27;100.00;102541.09;5044923;28;20068;-87
2023/09/04 04:44:17;;;;;;;18.05;15.57;;;;;;;12.24;100.00;102542.13;5028401;28;20136;-87
2023/09/04 04:46:42;;;;;;;20.05;17.13;;;;;;;12.28;100.00;102541.00;5062569;28;20179;-87
2023/09/04 04:49:10;;;;;;;17.42;15.82;;;;;;;12.28;100.00;102532.25;5040550;28;20057;-87
2023/09/04 04:51:36;;;;;;;16.25;14.75;;;;;;;12.23;100.00;102532.50;5027787;28;20083;-87
2023/09/04 04:54:01;;;;;;;17.33;15.70;;;;;;;12.26;100.00;102532.31;5030989;28;20124;-87
2023/09/04 04:56:27;;;;;;;18.65;16.80;;;;;;;12.27;100.00;102534.03;5043661;28;20024;-87
2023/09/04 04:58:52;;;;;;;17.52;15.68;;;;;;;12.16;100.00;102531.13;5041006;28;20033;-86
2023/09/04 05:01:17;;;;;;;17.05;15.45;;;;;;;12.15;100.00;102524.16;5031432;28;20100;-87
2023/09/04 05:03:43;;;;;;;17.95;16.33;;;;;;;12.15;100.00;102529.44;5047548;28;20137;-87
2023/09/04 05:06:08;;;;;;;18.70;16.75;;;;;;;12.21;100.00;102529.09;5044955;28;20668;-86
2023/09/04 05:08:34;;;;;;;21.58;16.95;;;;;;;12.18;100.00;102539.81;5030796;28;20092;-87
2023/09/04 05:11:02;;;;;;;17.25;15.68;;;;;;;12.15;100.00;102540.84;5029709;28;20025;-86
2023/09/04 05:13:28;;;;;;;16.77;15.20;;;;;;;12.11;100.00;102541.09;5029737;28;20029;-87
2023/09/04 05:15:53;;;;;;;17.23;15.63;;;;;;;12.11;100.00;102543.72;5027992;28;20029;-87
2023/09/04 05:18:19;;;;;;;18.77;16.95;;;;;;;12.13;100.00;102539.22;5029700;28;20029;-87
2023/09/04 05:20:44;;;;;;;18.70;16.77;;;;;;;12.12;100.00;102545.44;5029505;28;20078;-87
2023/09/04 05:23:10;;;;;;;17.48;15.77;;;;;;;12.12;100.00;102542.78;5049314;28;20385;-87
2023/09/04 05:25:35;;;;;;;18.90;16.17;;;;;;;12.15;100.00;102539.97;5048745;28;20028;-87
2023/09/04 05:28:00;;;;;;;17.33;15.77;;;;;;;12.16;100.00;102536.41;5047738;28;20276;-87
2023/09/04 05:30:26;;;;;;;18.88;16.48;;;;;;;12.11;100.00;102541.09;5035694;28;20056;-87
2023/09/04 05:32:52;;;;;;;19.95;18.05;;;;;;;12.21;100.00;102539.66;5049579;28;20029;-87
2023/09/04 05:35:18;;;;;;;18.20;16.40;;;;;;;12.21;100.00;102537.84;5028198;28;20095;-87
2023/09/04 05:37:44;;;;;;;18.25;16.45;;;;;;;12.24;100.00;102542.13;5029993;28;20053;-87
2023/09/04 05:40:10;;;;;;;18.40;16.60;;;;;;;12.35;100.00;102542.38;5039283;28;20385;-87
2023/09/04 05:42:35;;;;;;;17.73;16.02;;;;;;;12.40;100.00;102545.63;5029279;28;20025;-87
2023/09/04 05:45:01;;;;;;;18.52;16.75;;;;;;;12.41;100.00;102546.50;5027879;28;20725;-87
2023/09/04 05:47:26;;;;;;;19.30;17.45;;;;;;;12.44;100.00;102541.91;5027154;28;20796;-87
2023/09/04 05:49:51;;;;;;;18.77;17.05;;;;;;;12.50;100.00;102538.94;5027828;28;20045;-87
2023/09/04 05:52:17;;;;;;;19.13;17.15;;;;;;;12.55;100.00;102539.53;5025725;28;20032;-87
2023/09/04 05:54:42;;;;;;;19.98;18.02;;;;;;;12.63;100.00;102541.72;5037074;28;20021;-87
2023/09/04 05:57:10;;;;;;;20.35;18.45;;;;;;;12.66;100.00;102548.63;5047630;28;20239;-87
2023/09/04 05:59:35;;;;;;;21.58;19.38;;;;;;;12.68;100.00;102544.97;5049096;28;20361;-87
2023/09/04 06:02:01;;;;;;;19.83;17.95;;;;;;;12.76;100.00;102541.88;5046386;28;20021;-87
2023/09/04 06:04:26;;;;;;;21.85;19.50;;;;;;;12.81;100.00;102542.50;5046734;28;20492;-87
2023/09/04 06:06:52;;;;;;;21.15;18.92;;;;;;;12.89;100.00;102540.28;5052061;28;20137;-87
2023/09/04 06:09:17;;;;;;;22.55;19.17;;;;;;;12.96;100.00;102543.44;5036885;28;20088;-87
2023/09/04 06:11:43;;;;;;;20.90;18.98;;;;;;;13.04;100.00;102542.03;5032392;28;20037;-87
2023/09/04 06:14:08;;;;;;;21.63;19.42;;;;;;;13.11;100.00;102543.38;5032578;28;20493;-87
2023/09/04 06:16:34;;;;;;;23.02;18.38;;;;;;;13.17;100.00;102548.34;5031710;28;20113;-87
2023/09/04 06:19:00;;;;;;;21.45;19.25;;;;;;;13.21;100.00;102532.31;5030649;28;21455;-87
2023/09/04 06:21:25;;;;;;;21.25;19.15;;;;;;;13.29;100.00;102540.69;5030765;28;20025;-87
2023/09/04 06:23:51;;;;;;;24.98;19.70;;;;;;;13.33;100.00;102542.19;5039622;28;20039;-88
2023/09/04 06:26:16;;;;;;;21.15;18.80;;;;;;;13.39;100.00;102547.97;5030054;28;20025;-87
2023/09/04 06:28:42;;;;;;;21.23;19.33;;;;;;;13.45;100.00;102549.41;5039819;28;20028;-87
2023/09/04 06:31:10;;;;;;;21.83;19.35;;;;;;;13.52;100.00;102545.44;5052304;28;20025;-88
2023/09/04 06:33:37;;;;;;;21.65;19.55;;;;;;;13.59;100.00;102541.50;5052799;28;20412;-87
2023/09/04 06:36:04;;;;;;;21.52;19.33;;;;;;;13.65;100.00;102533.22;5052673;28;20370;-88
2023/09/04 06:38:30;;;;;;;21.33;19.33;;;;;;;13.70;100.00;102531.16;5050317;28;20481;-88
2023/09/04 06:40:58;;;;;;;21.75;19.45;;;;;;;13.75;100.00;102529.06;5051039;28;20047;-88
2023/09/04 06:43:25;;;;;;;22.38;20.10;;;;;;;13.84;100.00;102534.75;5032307;28;20501;-88
2023/09/04 06:45:50;;;;;;;22.25;19.88;;;;;;;13.91;100.00;102531.63;5030476;28;20120;-88
2023/09/04 06:48:15;;;;;;;21.38;19.17;;;;;;;13.98;100.00;102532.09;5031004;28;20455;-88
2023/09/04 06:50:43;;;;;;;21.92;19.60;;;;;;;14.07;100.00;102537.69;5044932;28;20125;-88
2023/09/04 06:53:12;;;;;;;21.83;19.67;;;;;;;14.18;100.00;102538.81;5051165;28;20370;-88
2023/09/04 06:55:37;;;;;;;21.33;19.23;;;;;;;14.28;100.00;102527.56;5034873;28;20021;-88
2023/09/04 06:58:03;;;;;;;22.13;19.38;;;;;;;14.39;100.00;102525.06;5031163;28;20030;-88
2023/09/04 07:00:29;;;;;;;22.02;18.88;;;;;;;14.49;100.00;102516.59;5028195;28;20478;-88
2023/09/04 07:02:54;;;;;;;20.92;18.95;;;;;;;14.60;100.00;102527.34;5031246;28;20048;-88
2023/09/04 07:05:19;;;;;;;20.25;18.20;;;;;;;14.76;100.00;102527.22;5030620;28;20053;-88
2023/09/04 07:07:47;;;;;;;20.23;18.13;;;;;;;14.88;100.00;102518.47;5046612;28;20362;-88
2023/09/04 07:10:13;;;;;;;20.20;18.20;;;;;;;15.03;100.00;102520.97;5030016;28;20060;-88
2023/09/04 07:12:40;;;;;;;20.20;17.80;;;;;;;15.20;100.00;102521.63;5029764;28;20486;-88
2023/09/04 07:15:06;;;;;;;19.13;17.33;;;;;;;15.33;100.00;102523.38;5028682;28;20036;-89
2023/09/04 07:17:31;;;;;;;19.23;17.33;;;;;;;15.52;100.00;102517.66;5045892;28;20079;-90
2023/09/04 07:19:57;;;;;;;18.38;16.52;;;;;;;15.65;100.00;102513.28;5046725;28;20052;-89
2023/09/04 07:22:22;;;;;;;18.30;16.40;;;;;;;15.84;100.00;102523.47;5051157;28;20039;-88
2023/09/04 07:24:47;;;;;;;17.23;15.52;;;;;;;16.00;100.00;102520.56;5050938;28;20045;-89
2023/09/04 07:27:13;;;;;;;17.08;15.30;;;;;;;16.15;100.00;102519.50;5050363;28;20025;-89
2023/09/04 07:29:38;;;;;;;17.20;15.48;;;;;;;16.27;100.00;102521.28;5036004;28;20394;-89
2023/09/04 07:32:05;;;;;;;18.40;14.75;;;;;;;16.51;100.00;102524.00;5028711;28;20029;-89
2023/09/04 07:34:31;;;;;;;16.00;14.43;;;;;;;16.74;100.00;102525.00;5048561;28;20075;-89
2023/09/04 07:36:56;;;;;;;15.88;14.13;;;;;;;16.92;100.00;102526.31;5051081;28;20930;-89
2023/09/04 07:39:22;;;;;;;15.45;13.95;;;;;;;17.20;100.00;102516.28;5051292;28;20524;-90
2023/09/04 07:41:47;;;;;;;15.43;13.93;;;;;;;17.37;100.00;102523.84;5049627;28;20025;-90
2023/09/04 07:44:12;;;;;;;13.63;12.32;;;;;;;17.55;100.00;102527.75;5051248;28;20017;-88
2023/09/04 07:46:38;;;;;;;14.90;13.07;;;;;;;17.67;100.00;102520.69;5036585;28;20120;-90
2023/09/04 07:49:03;;;;;;;14.07;12.68;;;;;;;17.90;98.97;102521.53;5030979;28;20021;-90
2023/09/04 07:51:29;;;;;;;13.23;11.93;;;;;;;18.06;97.79;102522.06;5049961;28;20028;-90
2023/09/04 07:53:54;;;;;;;12.90;11.70;;;;;;;18.15;95.27;102505.34;5046733;28;20075;-90
2023/09/04 07:56:21;;;;;;;12.38;11.07;;;;;;;18.28;95.56;102505.19;5032581;28;20028;-90
2023/09/04 07:58:46;;;;;;;12.63;11.32;;;;;;;18.51;94.59;102500.69;5035235;28;20021;-90
2023/09/04 08:01:13;;;;;;;13.20;10.77;;;;;;;18.68;92.93;102505.50;5047893;28;20148;-90
2023/09/04 08:03:39;;;;;;;13.30;10.70;;;;;;;18.84;93.29;102512.28;5028227;28;20021;-90
2023/09/04 08:06:04;;;;;;;11.65;10.45;;;;;;;19.00;91.26;102502.00;5030400;28;20545;-90
2023/09/04 08:08:30;;;;;;;11.70;10.25;;;;;;;19.18;90.21;102505.78;5027919;28;20083;-89
2023/09/04 08:10:55;;;;;;;10.70;9.60;;;;;;;19.32;88.83;102502.81;5029006;28;20034;-90
2023/09/04 08:13:21;;;;;;;10.15;9.18;;;;;;;19.44;87.13;102502.75;5029911;28;20018;-90
2023/09/04 08:15:46;;;;;;;10.38;9.02;;;;;;;19.51;86.55;102501.25;5035956;28;20021;-90
2023/09/04 08:18:15;;;;;;;9.88;8.48;;;;;;;19.73;86.08;102494.94;5048614;28;20512;-89
2023/09/04 08:20:40;;;;;;;10.27;8.75;;;;;;;19.87;85.20;102495.44;5028737;28;20030;-90
2023/09/04 08:23:09;;;;;;;9.95;8.13;;;;;;;20.03;85.12;102501.16;5033775;28;20449;-89
2023/09/04 08:25:36;;;;;;;9.52;8.45;;;;;;;20.21;83.80;102505.84;5031250;28;20021;-89
2023/09/04 08:28:02;;;;;;;10.27;8.63;;;;;;;20.28;82.47;102498.97;5031322;28;20442;-90
2023/09/04 08:30:28;;;;;;;10.40;8.48;;;;;;;20.37;81.06;102506.16;5048931;28;20438;-90
2023/09/04 08:32:53;;;;;;;11.50;7.90;;;;;;;20.56;80.55;102503.56;5048557;28;20055;-89
2023/09/04 08:35:19;;;;;;;9.80;7.60;;;;;;;20.82;80.31;102501.22;5043281;28;20035;-90
2023/09/04 08:37:44;;;;;;;7.95;7.15;;;;;;;20.89;78.70;102501.50;5029135;28;20104;-89
2023/09/04 08:40:10;;;;;;;9.98;6.90;;;;;;;21.12;78.52;102497.53;5028383;28;20204;-90
2023/09/04 08:42:38;;;;;;;8.02;5.97;;;;;;;21.42;76.85;102493.88;5029968;28;20033;-89
2023/09/04 08:45:06;;;;;;;8.25;6.53;;;;;;;21.67;74.72;102487.06;5028883;28;20071;-89
2023/09/04 08:47:38;;;;;;;9.05;6.00;;;;;;;21.99;74.45;102500.03;5046365;28;20064;-90
2023/09/04 08:50:04;;;;;;;7.70;6.40;;;;;;;22.08;70.67;102495.69;5040373;28;20021;-89
2023/09/04 08:52:29;;;;;;;7.80;5.55;;;;;;;22.36;72.24;102494.66;5027426;28;20509;-90
2023/09/04 08:54:55;;;;;;;8.15;6.07;;;;;;;22.44;70.83;102493.94;5041216;28;20115;-89
2023/09/04 08:57:23;;;;;;;6.30;5.50;;;;;;;22.65;69.06;102493.63;5048524;28;20039;-89
2023/09/04 08:59:49;;;;;;;6.95;5.50;;;;;;;22.75;67.25;102489.03;5035591;28;20028;-89
2023/09/04 09:02:16;;;;;;;6.07;5.47;;;;;;;22.92;66.90;102484.69;5048523;28;20029;-89
2023/09/04 09:04:45;;;;;;;6.22;4.65;;;;;;;22.97;66.21;102482.41;5033461;28;20078;-89
2023/09/04 09:07:13;;;;;;;5.68;4.97;;;;;;;23.03;64.42;102477.25;5030545;28;20040;-89
2023/09/04 09:09:44;;;;;;;6.00;4.80;;;;;;;23.27;65.65;102475.75;5041981;28;20482;-89
2023/09/04 09:12:12;;;;;;;7.63;4.88;;;;;;;23.48;65.27;102473.53;5034462;28;20576;-89
2023/09/04 09:14:37;;;;;;;5.85;4.88;;;;;;;23.51;62.40;102472.38;5030157;28;20083;-88
2023/09/04 09:17:03;;;;;;;4.68;4.18;;;;;;;23.63;62.23;102472.00;5030085;28;20029;-89
2023/09/04 09:19:31;;;;;;;11.45;4.88;;;;;;;23.67;62.56;102476.06;5029282;28;20474;-89
2023/09/04 09:22:11;;;;;;;6.43;4.38;;;;;;;23.72;63.04;102479.09;5028842;28;20530;-88
2023/09/04 09:24:49;;;;;;;6.13;4.05;;;;;;;23.63;62.39;102479.22;5029109;28;20052;-88
2023/09/04 09:27:15;;;;;;;5.40;4.10;;;;;;;23.50;60.39;102479.59;5026594;28;20033;-88
2023/09/04 09:29:40;;;;;;;4.63;4.10;;;;;;;23.75;60.11;102478.78;5043460;28;20029;-86
2023/09/04 09:32:06;;;;;;;3.83;3.50;;;;;;;23.95;61.22;102483.91;5049894;28;20032;-86
2023/09/04 09:34:33;;;;;;;4.55;3.67;;;;;;;24.09;58.90;102491.38;5048143;28;20027;-86
2023/09/04 09:36:58;;;;;;;4.93;3.33;;;;;;;24.20;58.74;102487.53;5048691;28;21397;-89
2023/09/04 09:39:26;;;;;;;5.63;3.35;;;;;;;24.25;59.51;102483.34;5047391;28;20067;-88
2023/09/04 09:41:51;;;;;;;5.78;3.53;;;;;;;24.40;57.00;102480.91;5052156;28;20090;-85
2023/09/04 09:44:17;;;;;;;4.57;3.35;;;;;;;24.63;57.75;102483.81;5037580;28;20048;-89
2023/09/04 09:46:43;;;;;;;4.40;3.33;;;;;;;24.80;56.06;102479.28;5051613;28;20537;-87
2023/09/04 09:49:08;;;;;;;5.30;2.92;;;;;;;24.87;56.29;102485.72;5051936;28;20021;-89
2023/09/04 09:51:36;;;;;;;5.25;3.10;;;;;;;24.96;54.80;102474.75;5051708;28;20040;-88
2023/09/04 09:54:02;;;;;;;4.88;2.95;;;;;;;25.07;57.10;102467.38;5048349;28;20048;-88
2023/09/04 09:56:27;;;;;;;4.07;3.15;;;;;;;25.08;53.69;102463.66;5032478;28;20033;-88
2023/09/04 09:58:54;;;;;;;7.93;3.22;;;;;;;24.95;54.54;102459.63;5032408;28;20021;-87
2023/09/04 10:01:19;;;;;;;5.97;3.20;;;;;;;24.96;55.21;102468.53;5028868;28;20390;-89
2023/09/04 10:03:47;;;;;;;4.20;2.97;;;;;;;25.02;53.25;102456.28;5032310;28;20027;-88
2023/09/04 10:06:27;;;;;;;5.68;2.63;;;;;;;25.17;55.75;102449.19;5032421;28;20040;-88
2023/09/04 10:08:52;;;;;;;4.13;2.88;;;;;;;25.08;54.23;102447.50;5030699;28;20029;-88
2023/09/04 10:11:18;;;;;;;3.90;2.80;;;;;;;25.13;54.17;102445.16;5030785;28;20043;-88
2023/09/04 10:13:52;;;;;;;4.78;2.67;;;;;;;25.20;53.54;102443.44;5032314;28;20029;-88
2023/09/04 10:16:28;;;;;;;4.72;2.50;;;;;;;25.24;52.67;102447.50;5029385;28;20111;-89
2023/09/04 10:18:56;;;;;;;4.13;2.50;;;;;;;25.27;51.45;102445.31;5029630;28;20022;-89
2023/09/04 10:21:27;;;;;;;3.08;2.63;;;;;;;25.36;51.20;102440.75;5033231;28;20033;-89
2023/09/04 10:23:59;;;;;;;3.80;2.92;;;;;;;25.34;50.98;102445.47;5032757;28;20087;-88
2023/09/04 10:26:35;;;;;;;3.53;2.58;;;;;;;25.44;51.63;102437.19;5031503;28;20029;-89
2023/09/04 10:29:08;;;;;;;4.25;3.00;;;;;;;25.50;52.74;102433.78;5040680;28;20036;-88
2023/09/04 10:31:35;;;;;;;2.63;2.42;;;;;;;25.55;51.25;102426.03;5051585;28;20029;-88
2023/09/04 10:34:01;;;;;;;4.85;2.80;;;;;;;25.75;51.63;102426.50;5043248;28;20112;-88
2023/09/04 10:36:30;;;;;;;5.57;2.60;;;;;;;25.59;52.67;102421.97;5031867;28;20583;-88
2023/09/04 10:38:57;;;;;;;3.63;2.50;;;;;;;25.63;50.56;102414.41;5032630;28;20033;-88
2023/09/04 10:41:23;;;;;;;2.60;2.40;;;;;;;25.79;48.08;102408.94;5031254;28;20026;-88
2023/09/04 10:43:48;;;;;;;4.28;2.38;;;;;;;25.83;50.35;102410.28;5046123;28;20029;-87
2023/09/04 10:46:14;;;;;;;3.17;2.40;;;;;;;25.91;50.64;102410.22;5052356;28;20592;-88
2023/09/04 10:48:43;;;;;;;2.67;2.40;;;;;;;25.94;47.22;102404.47;5050608;28;20036;-88
2023/09/04 10:51:30;;;;;;;3.33;2.60;;;;;;;25.84;48.69;102414.66;5045136;28;20030;-87
2023/09/04 10:53:57;;;;;;;3.67;2.30;;;;;;;25.63;47.42;102409.00;5035988;28;20033;-87
2023/09/04 10:56:23;;;;;;;2.55;2.15;;;;;;;25.73;47.27;102407.81;5031398;28;20025;-88
2023/09/04 10:59:04;;;;;;;3.28;2.47;;;;;;;25.84;49.43;102398.47;5030858;28;20048;-88
2023/09/04 11:01:35;;;;;;;5.13;1.95;;;;;;;26.03;45.87;102397.22;5031160;28;20036;-88
2023/09/04 11:04:02;;;;;;;4.88;2.20;;;;;;;26.05;43.27;102401.41;5031334;28;20024;-88
2023/09/04 11:06:28;;;;;;;3.95;2.30;;;;;;;26.19;43.83;102391.69;5030815;28;20056;-88